Time;durP1;ratioP1;P1;durP2;ratioP2;P2;SDS_P1;SDS_P2;PMS_P1;PMS_P2;Temp;Humidity;BMP_temperature;BMP_pressure;BME280_temperature;BME280_humidity;BME280_pressure;Samples;Min_cycle;Max_cycle;Signal;HPM_P1;HPM_P2
2021/06/14 00:00:53;;;;;;;11.65;5.40;;;;;;;-142.75;61.46;77700.34;5054516;28;19920;-74
2021/06/14 00:03:18;;;;;;;;;;;;;;;-142.75;61.06;77692.47;5037103;28;20064;-74
2021/06/14 00:05:44;;;;;;;9.10;5.53;;;;;;;-142.75;61.01;77692.47;5036344;28;20386;-75
2021/06/14 00:08:19;;;;;;;21.95;6.07;;;;;;;-142.75;60.83;77684.59;5053058;28;20074;-74
2021/06/14 00:10:47;;;;;;;11.82;6.03;;;;;;;-142.75;60.60;77678.69;5054119;28;20098;-74
2021/06/14 00:13:13;;;;;;;10.60;6.55;;;;;;;-142.75;61.07;77680.66;5054330;28;20082;-74
2021/06/14 00:15:40;;;;;;;8.25;5.40;;;;;;;-142.75;61.47;77690.50;5053598;28;20036;-74
2021/06/14 00:18:07;;;;;;;9.40;5.05;;;;;;;-142.75;62.02;77700.34;5035514;28;20039;-74
2021/06/14 00:20:33;;;;;;;9.65;7.10;;;;;;;-142.75;62.26;77704.28;5053941;28;20478;-75
2021/06/14 00:22:58;;;;;;;15.68;8.88;;;;;;;-142.75;62.73;77692.47;5053524;28;20025;-74
2021/06/14 00:25:26;;;;;;;13.80;8.02;;;;;;;-142.75;62.25;77666.88;5036277;28;20041;-74
2021/06/14 00:27:53;;;;;;;11.20;7.78;;;;;;;-142.75;61.45;77647.19;5036544;28;20078;-74
2021/06/14 00:30:28;;;;;;;14.48;7.20;;;;;;;-142.75;62.26;77657.03;5035964;28;20104;-74
2021/06/14 00:32:54;;;;;;;14.82;7.00;;;;;;;-142.75;62.33;77674.75;5053840;28;20021;-74
2021/06/14 00:35:19;;;;;;;11.48;6.82;;;;;;;-142.75;63.11;77682.63;5053294;28;20021;-74
2021/06/14 00:37:44;;;;;;;;;;;;;;;-142.75;63.82;77692.47;5033684;28;20031;-74
2021/06/14 00:40:10;;;;;;;12.60;6.55;;;;;;;-142.75;63.64;77702.31;5034448;28;19912;-74
2021/06/14 00:42:35;;;;;;;;;;;;;;;-142.75;63.88;77708.22;5052908;28;20087;-74
2021/06/14 00:45:04;;;;;;;14.63;8.15;;;;;;;-142.75;64.53;77706.25;5036197;28;19913;-74
2021/06/14 00:47:30;;;;;;;12.93;8.02;;;;;;;-142.75;64.30;77708.22;5053128;28;20048;-74
2021/06/14 00:49:55;;;;;;;8.95;6.72;;;;;;;-142.75;64.07;77712.16;5035123;28;20096;-74
2021/06/14 00:52:20;;;;;;;12.02;7.97;;;;;;;-142.75;64.34;77716.09;5034654;28;20053;-74
2021/06/14 00:54:45;;;;;;;13.65;7.22;;;;;;;-142.75;64.62;77718.06;5034579;28;20086;-74
2021/06/14 00:57:11;;;;;;;;;;;;;;;-142.75;64.63;77727.94;5052733;28;20802;-74
2021/06/14 00:59:36;;;;;;;16.15;10.93;;;;;;;-142.75;66.88;77690.50;5033814;28;20090;-74
2021/06/14 01:02:01;;;;;;;;;;;;;;;-142.75;69.13;77668.84;5053896;28;20027;-74
2021/06/14 01:04:26;;;;;;;14.45;8.35;;;;;;;-142.75;69.14;77637.34;5034772;28;19913;-74
2021/06/14 01:06:51;;;;;;;;;;;;;;;-142.75;69.07;77619.63;5052950;28;20032;-73
2021/06/14 01:09:17;;;;;;;17.75;12.20;;;;;;;-142.75;68.74;77613.72;5052101;28;20404;-74
2021/06/14 01:11:52;;;;;;;22.98;12.27;;;;;;;-142.75;68.72;77594.03;5035057;28;20049;-74
2021/06/14 01:14:35;;;;;;;16.92;11.13;;;;;;;-142.75;67.88;77580.25;5053595;28;20029;-73
2021/06/14 01:17:09;;;;;;;13.48;8.75;;;;;;;-142.75;66.97;77578.28;5035486;28;20032;-74
2021/06/14 01:20:03;;;;;;;16.98;10.18;;;;;;;-142.75;66.25;77584.19;5036730;28;20025;-73
2021/06/14 01:23:04;;;;;;;17.13;11.27;;;;;;;-142.75;66.36;77580.25;5052851;28;20565;-74
2021/06/14 01:25:30;;;;;;;16.52;11.25;;;;;;;-142.75;66.67;77578.28;5052576;28;20025;-74
2021/06/14 01:27:57;;;;;;;16.00;11.33;;;;;;;-142.75;66.51;77570.41;5035051;28;20041;-74
2021/06/14 01:30:29;;;;;;;17.98;11.15;;;;;;;-142.75;66.79;77566.47;5031300;28;20860;-73
2021/06/14 01:32:55;;;;;;;13.18;10.23;;;;;;;-142.75;66.34;77566.47;5034166;28;20036;-74
2021/06/14 01:35:35;;;;;;;18.27;10.98;;;;;;;-142.75;66.45;77564.50;5036717;28;20021;-73
2021/06/14 01:38:01;;;;;;;17.33;11.18;;;;;;;-142.75;66.44;77574.34;5034702;28;20024;-73
2021/06/14 01:40:28;;;;;;;15.85;11.90;;;;;;;-142.75;66.49;77574.34;5032708;28;20032;-74
2021/06/14 01:42:56;;;;;;;15.88;10.85;;;;;;;-142.75;65.94;77570.41;5032700;28;20513;-74
2021/06/14 01:45:25;;;;;;;22.40;11.85;;;;;;;-142.75;65.69;77578.28;5051044;28;20023;-74
2021/06/14 01:47:52;;;;;;;19.65;11.77;;;;;;;-142.75;65.72;77574.34;5051172;28;20021;-73
2021/06/14 01:50:18;;;;;;;17.80;12.68;;;;;;;-142.75;66.44;77574.34;5033379;28;20156;-74
2021/06/14 01:52:43;;;;;;;;;;;;;;;-142.75;66.30;77576.31;5034333;28;20429;-75
2021/06/14 01:55:14;;;;;;;19.85;11.45;;;;;;;-142.75;66.17;77576.31;5035532;28;19997;-74
2021/06/14 01:57:40;;;;;;;17.77;12.25;;;;;;;-142.75;66.30;77562.53;5035525;28;20112;-75
2021/06/14 02:00:07;;;;;;;22.05;12.65;;;;;;;-142.75;65.88;77560.56;5032286;28;20021;-74
2021/06/14 02:02:33;;;;;;;24.83;13.65;;;;;;;-142.75;65.76;77552.69;5032210;28;20025;-74
2021/06/14 02:05:00;;;;;;;22.95;12.57;;;;;;;-142.75;66.32;77548.75;5034781;28;20032;-74
2021/06/14 02:07:26;;;;;;;20.33;12.38;;;;;;;-142.75;65.80;77548.75;5035282;28;20096;-74
2021/06/14 02:09:54;;;;;;;22.27;13.13;;;;;;;-142.75;66.19;77556.63;5034358;28;20055;-75
2021/06/14 02:12:19;;;;;;;23.27;13.52;;;;;;;-142.75;66.03;77558.59;5031212;28;20044;-73
2021/06/14 02:14:45;;;;;;;21.25;13.38;;;;;;;-142.75;65.35;77550.72;5046918;28;20021;-74
2021/06/14 02:17:18;;;;;;;16.05;11.75;;;;;;;-142.75;64.90;77546.78;5034653;28;20445;-74
2021/06/14 02:19:46;;;;;;;20.15;12.90;;;;;;;-142.75;64.91;77550.72;5051803;28;20036;-74
2021/06/14 02:22:13;;;;;;;18.52;12.57;;;;;;;-142.75;64.39;77550.72;5033743;28;20040;-74
2021/06/14 02:24:40;;;;;;;19.45;12.20;;;;;;;-142.75;64.78;77560.56;5051196;28;20021;-74
2021/06/14 02:27:06;;;;;;;17.45;10.73;;;;;;;-142.75;65.07;77566.47;5032461;28;20017;-74
2021/06/14 02:29:31;;;;;;;18.40;11.00;;;;;;;-142.75;65.35;77566.47;5033951;28;20032;-74
2021/06/14 02:31:57;;;;;;;17.88;11.48;;;;;;;-142.75;64.96;77582.22;5034251;28;20162;-74
2021/06/14 02:34:22;;;;;;;18.83;11.60;;;;;;;-142.75;65.16;77592.06;5051670;28;20017;-74
2021/06/14 02:36:48;;;;;;;17.35;11.57;;;;;;;-142.75;64.99;77601.91;5052034;28;20031;-74
2021/06/14 02:39:17;;;;;;;;;;;;;;;-142.75;65.13;77599.94;5034455;28;20031;-74
2021/06/14 02:41:45;;;;;;;18.13;11.50;;;;;;;-142.75;65.58;77597.97;5034268;28;19928;-74
2021/06/14 02:44:10;;;;;;;14.43;11.23;;;;;;;-142.75;65.36;77601.91;5051357;28;20021;-74
2021/06/14 02:46:40;;;;;;;18.75;12.65;;;;;;;-142.75;65.44;77609.78;5034205;28;20067;-74
2021/06/14 02:49:06;;;;;;;21.42;12.57;;;;;;;-142.75;65.65;77605.84;5035507;28;20108;-74
2021/06/14 02:51:32;;;;;;;;;;;;;;;-142.75;65.55;77601.91;5051765;28;20031;-75
2021/06/14 02:54:06;;;;;;;18.10;10.70;;;;;;;-142.75;65.19;77605.84;5034322;28;19917;-74
2021/06/14 02:56:34;;;;;;;18.40;11.30;;;;;;;-142.75;65.20;77597.97;5052394;28;20029;-74
2021/06/14 02:59:01;;;;;;;22.70;11.57;;;;;;;-142.75;65.53;77596.00;5051589;28;20025;-74
2021/06/14 03:01:28;;;;;;;13.30;9.38;;;;;;;-142.75;65.81;77596.00;5051338;28;20059;-74
2021/06/14 03:03:56;;;;;;;15.70;9.48;;;;;;;-142.75;65.19;77621.59;5033493;28;20040;-74
2021/06/14 03:06:23;;;;;;;11.85;8.70;;;;;;;-142.75;64.99;77641.28;5033573;28;20025;-73
2021/06/14 03:08:49;;;;;;;12.30;9.27;;;;;;;-142.75;65.12;77666.88;5050812;28;20485;-74
2021/06/14 03:11:14;;;;;;;;;;;;;;;-142.75;65.46;77682.63;5051488;28;20394;-74
2021/06/14 03:13:44;;;;;;;16.08;9.27;;;;;;;-142.75;65.61;77698.38;5033533;28;19938;-73
2021/06/14 03:16:12;;;;;;;18.50;10.25;;;;;;;-142.75;65.55;77702.31;5037966;28;20017;-74
2021/06/14 03:18:37;;;;;;;19.00;12.10;;;;;;;-142.75;66.05;77716.09;5037268;28;20033;-74
2021/06/14 03:21:03;;;;;;;18.75;11.98;;;;;;;-142.75;66.87;77720.03;5055114;28;20108;-74
2021/06/14 03:23:28;;;;;;;20.95;13.88;;;;;;;-142.75;67.43;77718.06;5055614;28;20581;-73
2021/06/14 03:25:54;;;;;;;;;;;;;;;-142.75;67.96;77688.53;5057552;28;20025;-74
2021/06/14 03:28:20;;;;;;;17.05;12.13;;;;;;;-142.75;67.55;77678.69;5042011;28;19912;-74
2021/06/14 03:30:46;;;;;;;21.80;11.77;;;;;;;-142.75;66.75;77686.56;5037319;28;20032;-74
2021/06/14 03:33:15;;;;;;;17.75;11.77;;;;;;;-142.75;66.36;77688.53;5037496;28;20021;-73
2021/06/14 03:35:41;;;;;;;16.88;11.00;;;;;;;-142.75;66.21;77696.41;5054563;28;20025;-74
2021/06/14 03:38:07;;;;;;;18.30;11.07;;;;;;;-142.75;66.29;77704.28;5054719;28;20039;-74
2021/06/14 03:40:32;;;;;;;19.05;11.43;;;;;;;-142.75;66.23;77712.16;5054538;28;20076;-74
2021/06/14 03:42:59;;;;;;;16.90;10.60;;;;;;;-142.75;66.20;77720.03;5054405;28;20060;-74
2021/06/14 03:45:25;;;;;;;20.45;11.15;;;;;;;-142.75;66.21;77718.06;5037269;28;20028;-74
2021/06/14 03:47:51;;;;;;;20.25;10.98;;;;;;;-142.75;66.35;77723.97;5054808;28;20028;-74
2021/06/14 03:50:17;;;;;;;19.85;13.30;;;;;;;-142.75;66.75;77720.03;5054097;28;20399;-74
2021/06/14 03:52:42;;;;;;;15.80;10.60;;;;;;;-142.75;66.80;77718.06;5054057;28;20039;-73
2021/06/14 03:55:09;;;;;;;15.50;9.90;;;;;;;-142.75;66.71;77716.09;5054107;28;20028;-74
2021/06/14 03:57:35;;;;;;;19.17;10.60;;;;;;;-142.75;66.67;77706.25;5036187;28;20040;-74
2021/06/14 04:00:00;;;;;;;22.83;11.95;;;;;;;-142.75;66.85;77696.41;5054400;28;20757;-73
2021/06/14 04:02:26;;;;;;;18.30;11.25;;;;;;;-142.75;66.89;77688.53;5036250;28;20025;-73
2021/06/14 04:04:56;;;;;;;17.02;10.48;;;;;;;-142.75;66.62;77688.53;5035610;28;20397;-74
2021/06/14 04:07:21;;;;;;;16.73;10.32;;;;;;;-142.75;66.54;77680.66;5034983;28;20509;-74
2021/06/14 04:09:47;;;;;;;20.25;12.15;;;;;;;-142.75;66.36;77660.97;5033331;28;20049;-73
2021/06/14 04:12:13;;;;;;;20.58;11.00;;;;;;;-142.75;66.04;77651.13;5034707;28;20031;-73
2021/06/14 04:14:41;;;;;;;18.50;10.07;;;;;;;-142.75;66.12;77633.41;5053731;28;20478;-74
2021/06/14 04:17:06;;;;;;;16.30;9.82;;;;;;;-142.75;65.96;77633.41;5054035;28;20025;-74
2021/06/14 04:19:32;;;;;;;21.05;10.65;;;;;;;-142.75;66.15;77627.50;5053900;28;21395;-74
2021/06/14 04:21:57;;;;;;;17.05;10.43;;;;;;;-142.75;66.39;77627.50;5035837;28;20033;-74
2021/06/14 04:24:23;;;;;;;15.20;10.48;;;;;;;-142.75;66.39;77643.25;5036101;28;20485;-73
2021/06/14 04:26:49;;;;;;;16.35;9.48;;;;;;;-142.75;66.42;77645.22;5053592;28;20028;-74
2021/06/14 04:29:14;;;;;;;;;;;;;;;-142.75;66.83;77645.22;5054116;28;20032;-74
2021/06/14 04:31:40;;;;;;;18.10;10.90;;;;;;;-142.75;67.93;77645.22;5036613;28;19916;-74
2021/06/14 04:34:05;;;;;;;;;;;;;;;-142.75;67.72;77631.44;5035607;28;20032;-74
2021/06/14 04:36:30;;;;;;;25.20;10.95;;;;;;;-142.75;67.07;77625.53;5036835;28;19917;-75
2021/06/14 04:38:55;;;;;;;25.73;10.60;;;;;;;-142.75;64.96;77607.81;5037157;28;20120;-75
2021/06/14 04:41:21;;;;;;;;;;;;;;;-142.75;63.99;77562.53;5048100;28;20030;-75
2021/06/14 04:43:46;;;;;;;17.33;9.32;;;;;;;-142.75;63.00;77529.06;5055083;28;20007;-74
2021/06/14 04:46:11;;;;;;;;;;;;;;;-142.75;62.69;77503.47;5040129;28;20020;-73
2021/06/14 04:48:36;;;;;;;28.90;9.70;;;;;;;-142.75;61.43;77475.91;5057513;28;19917;-73
2021/06/14 04:51:02;;;;;;;;;;;;;;;-142.75;60.54;77452.25;5045236;28;20029;-74
2021/06/14 04:53:27;;;;;;;25.42;9.82;;;;;;;-142.75;59.93;77426.66;5035084;28;19944;-74
2021/06/14 04:55:53;;;;;;;;;;;;;;;-142.75;59.38;77408.94;5034111;28;20032;-73
2021/06/14 04:58:19;;;;;;;21.08;9.48;;;;;;;-142.75;59.78;77383.34;5036121;28;20019;-74
2021/06/14 05:00:44;;;;;;;;;;;;;;;-142.75;59.45;77361.69;5054472;28;20036;-74
2021/06/14 05:03:10;;;;;;;29.48;9.98;;;;;;;-142.75;58.67;77349.88;5054299;28;19920;-73
2021/06/14 05:05:35;;;;;;;;;;;;;;;-142.75;58.31;77324.28;5037577;28;20021;-73
2021/06/14 05:08:00;;;;;;;25.20;9.75;;;;;;;-142.75;58.43;77308.53;5036667;28;19919;-73
2021/06/14 05:10:26;;;;;;;;;;;;;;;-142.75;58.93;77294.75;5036708;28;20016;-73
2021/06/14 05:12:51;;;;;;;18.38;10.02;;;;;;;-142.75;59.60;77282.94;5055723;28;19913;-74
2021/06/14 05:15:17;;;;;;;;;;;;;;;-142.75;59.50;77271.13;5036501;28;20029;-74
2021/06/14 05:17:42;;;;;;;21.95;10.93;;;;;;;-142.75;60.50;77259.31;5054340;28;19914;-73
2021/06/14 05:20:08;;;;;;;;;;;;;;;-142.75;59.57;77251.44;5034282;28;20580;-73
2021/06/14 05:22:33;;;;;;;24.90;9.73;;;;;;;-142.75;58.80;77227.81;5034520;28;19920;-74
2021/06/14 05:24:58;;;;;;;;;;;;;;;-142.75;58.76;77223.88;5039977;28;20029;-74
2021/06/14 05:27:24;;;;;;;24.92;10.65;;;;;;;-142.75;58.58;77204.19;5035086;28;19938;-74
2021/06/14 05:29:49;;;;;;;;;;;;;;;-142.75;58.05;77188.44;5055392;28;20159;-72
2021/06/14 05:32:15;;;;;;;22.58;9.70;;;;;;;-142.75;57.43;77166.78;5033432;28;19913;-76
2021/06/14 05:34:40;;;;;;;;;;;;;;;-142.75;57.37;77137.25;5036171;28;20433;-73
2021/06/14 05:37:05;;;;;;;21.85;8.73;;;;;;;-142.75;54.88;77123.47;5041406;28;20049;-74
2021/06/14 05:39:31;;;;;;;;;;;;;;;-142.75;54.55;77090.00;5031609;28;20541;-73
2021/06/14 05:41:56;;;;;;;20.13;7.78;;;;;;;-142.75;53.93;77056.53;5033753;28;19912;-74
2021/06/14 05:44:21;;;;;;;;;;;;;;;-142.75;54.26;77013.22;5049598;22;20048;-76
2021/06/14 05:46:47;;;;;;;19.77;8.13;;;;;;;-142.75;53.28;76981.72;5048985;28;19964;-73
2021/06/14 05:49:12;;;;;;;22.00;8.70;;;;;;;-142.75;53.60;76926.59;5048409;28;20036;-75
2021/06/14 05:51:38;;;;;;;;;;;;;;;-142.75;49.21;76881.31;5050541;28;20032;-75
2021/06/14 05:54:04;;;;;;;18.45;5.88;;;;;;;-142.75;45.84;76857.69;5031169;28;20370;-73
2021/06/14 05:56:30;;;;;;;15.57;5.90;;;;;;;-142.75;46.86;76796.69;5037143;28;20034;-74
2021/06/14 05:58:55;;;;;;;21.88;6.25;;;;;;;-142.75;45.88;76751.41;5048983;28;20385;-75
2021/06/14 06:01:20;;;;;;;15.65;5.40;;;;;;;-142.75;45.08;76723.84;5042815;28;20051;-75
2021/06/14 06:03:46;;;;;;;23.83;5.43;;;;;;;-142.75;44.42;76680.53;5012842;28;20132;-76
2021/06/14 06:06:11;;;;;;;17.25;6.03;;;;;;;-142.75;42.89;76727.78;5047049;28;20044;-73
2021/06/14 06:08:37;;;;;;;16.58;5.68;;;;;;;-142.75;43.20;76656.91;5029443;28;20112;-76
2021/06/14 06:11:03;;;;;;;19.25;5.65;;;;;;;-142.75;43.12;76641.16;5013567;28;20060;-76
2021/06/14 06:13:28;;;;;;;16.38;5.80;;;;;;;-142.75;43.56;76621.47;5014665;28;20026;-77
2021/06/14 06:15:53;;;;;;;15.07;5.20;;;;;;;-142.75;42.64;76603.75;5050883;28;20533;-75
2021/06/14 06:18:19;;;;;;;16.67;5.72;;;;;;;-142.75;43.69;76621.47;5031342;28;20086;-75
2021/06/14 06:20:44;;;;;;;21.52;6.40;;;;;;;-142.75;43.48;76660.84;5047620;28;20052;-75
2021/06/14 06:23:10;;;;;;;17.20;6.68;;;;;;;-142.75;44.80;76652.97;5040691;28;20036;-76
2021/06/14 06:25:35;;;;;;;17.50;6.13;;;;;;;-142.75;42.86;76597.84;5031239;28;20032;-75
2021/06/14 06:28:01;;;;;;;13.20;5.53;;;;;;;-142.75;42.17;76580.13;5016199;28;20025;-75
2021/06/14 06:30:29;;;;;;;17.02;5.38;;;;;;;-142.75;42.09;76599.81;5030776;28;20097;-76
2021/06/14 06:32:54;;;;;;;17.73;5.18;;;;;;;-142.75;41.81;76515.19;5030899;28;20028;-76
2021/06/14 06:35:21;;;;;;;15.35;5.63;;;;;;;-142.75;40.82;76530.91;5043225;28;20026;-76
2021/06/14 06:37:46;;;;;;;16.58;5.68;;;;;;;-142.75;40.92;76454.16;5017354;28;20111;-75
2021/06/14 06:40:13;;;;;;;18.52;5.75;;;;;;;-142.75;40.81;76462.03;5032575;28;20115;-74
2021/06/14 06:42:39;;;;;;;11.82;5.22;;;;;;;-142.75;40.18;76475.81;5048278;28;20032;-75
2021/06/14 06:45:07;;;;;;;15.68;5.03;;;;;;;-142.75;39.31;76428.56;5021151;28;20026;-76
2021/06/14 06:47:32;;;;;;;10.68;4.50;;;;;;;-142.75;39.39;76397.06;5031068;28;20029;-75
2021/06/14 06:49:57;;;;;;;15.23;5.13;;;;;;;-142.75;39.28;76365.56;5011968;28;20098;-75
2021/06/14 06:52:23;;;;;;;14.85;5.20;;;;;;;-142.75;38.95;76379.34;5030678;28;20029;-76
2021/06/14 06:54:48;;;;;;;16.88;5.05;;;;;;;-142.75;38.21;76361.63;5030610;28;20026;-76
2021/06/14 06:57:14;;;;;;;17.70;5.70;;;;;;;-142.75;37.53;76243.53;5045875;28;20021;-76
2021/06/14 06:59:40;;;;;;;15.52;5.35;;;;;;;-142.75;37.38;76188.44;5027050;28;20516;-75
2021/06/14 07:02:05;;;;;;;18.67;5.20;;;;;;;-142.75;36.38;76206.13;5050256;28;20020;-76
2021/06/14 07:04:30;;;;;;;12.38;5.00;;;;;;;-142.75;36.74;76235.66;5044912;28;20024;-76
2021/06/14 07:06:56;;;;;;;14.57;4.95;;;;;;;-142.75;36.98;76062.47;5050638;28;20092;-77
2021/06/14 07:09:21;;;;;;;11.85;4.80;;;;;;;-142.75;35.26;75960.13;5015877;28;20378;-75
2021/06/14 07:11:46;;;;;;;16.50;5.28;;;;;;;-142.75;34.10;76068.38;5030234;28;20438;-76
2021/06/14 07:14:12;;;;;;;16.27;4.80;;;;;;;-142.75;36.08;76117.56;5030315;28;20536;-76
2021/06/14 07:16:39;;;;;;;13.70;5.30;;;;;;;-142.75;34.49;76029.00;5032499;28;20028;-75
2021/06/14 07:19:04;;;;;;;15.93;5.15;;;;;;;-142.75;34.88;75885.31;5032770;28;20028;-76
2021/06/14 07:21:30;;;;;;;13.82;4.40;;;;;;;-142.75;33.28;75782.97;5032377;28;20021;-76
2021/06/14 07:23:55;;;;;;;11.63;4.53;;;;;;;-142.75;32.11;75796.75;5026015;28;20402;-77
2021/06/14 07:26:22;;;;;;;18.73;4.88;;;;;;;-142.75;31.72;75735.75;5023970;28;20445;-77
2021/06/14 07:28:48;;;;;;;12.63;4.55;;;;;;;-142.75;31.43;75810.53;5025890;28;20028;-78
2021/06/14 07:31:15;;;;;;;11.70;4.45;;;;;;;-142.75;32.11;75672.78;5029859;28;20034;-74
2021/06/14 07:33:40;;;;;;;13.45;5.03;;;;;;;-142.75;31.79;75792.81;5023538;28;20025;-77
2021/06/14 07:36:08;;;;;;;15.55;5.13;;;;;;;-142.75;31.30;75745.59;5032227;28;20024;-75
2021/06/14 07:38:35;;;;;;;12.82;4.90;;;;;;;-142.75;31.59;75842.03;5039225;28;20037;-75
2021/06/14 07:41:00;;;;;;;11.18;4.22;;;;;;;-142.75;33.01;75869.56;5028581;28;20475;-76
2021/06/14 07:43:26;;;;;;;16.42;4.75;;;;;;;-142.75;32.26;75751.50;5016771;28;20037;-75
2021/06/14 07:45:52;;;;;;;12.85;4.30;;;;;;;-142.75;32.42;75619.63;5032040;28;20074;-76
2021/06/14 07:48:18;;;;;;;12.63;4.63;;;;;;;-142.75;30.37;75491.72;5014507;28;20112;-77
2021/06/14 07:50:45;;;;;;;10.20;4.15;;;;;;;-142.75;28.53;75426.78;5012365;28;20026;-77
2021/06/14 07:53:11;;;;;;;15.38;4.82;;;;;;;-142.75;28.95;75334.28;5012536;28;20398;-76
2021/06/14 07:55:37;;;;;;;16.73;4.43;;;;;;;-142.75;29.33;75302.78;5012307;28;20021;-76
2021/06/14 07:58:04;;;;;;;9.73;4.63;;;;;;;-142.75;28.95;75338.22;5022291;28;20036;-76
2021/06/14 08:00:29;;;;;;;11.98;4.55;;;;;;;-142.75;29.53;75418.91;5046258;28;20030;-75
2021/06/14 08:02:57;;;;;;;14.00;4.72;;;;;;;-142.75;29.17;75292.97;5033628;28;20024;-76
2021/06/14 08:05:23;;;;;;;15.13;4.50;;;;;;;-142.75;28.52;75204.41;5033585;28;20028;-76
2021/06/14 08:07:49;;;;;;;17.95;4.82;;;;;;;-142.75;27.82;75387.41;5016971;28;20029;-74
2021/06/14 08:10:17;;;;;;;12.75;5.03;;;;;;;-142.75;29.98;75535.00;5018705;28;20170;-77
2021/06/14 08:12:47;;;;;;;13.40;4.25;;;;;;;-142.75;30.05;75523.19;5033522;28;20021;-77
2021/06/14 08:15:39;;;;;;;14.18;4.65;;;;;;;-142.75;30.02;75481.88;5037913;28;20083;-77
2021/06/14 08:18:23;;;;;;;12.63;4.22;;;;;;;-142.75;28.19;75302.78;5048164;28;20033;-77
2021/06/14 08:21:07;;;;;;;10.25;4.00;;;;;;;-142.75;28.12;75149.31;5053213;28;20046;-76
2021/06/14 08:26:17;;;;;;;11.30;3.65;;;;;;;-142.75;27.49;75025.34;5053404;28;20027;-76
2021/06/14 08:28:42;;;;;;;12.93;4.00;;;;;;;-142.75;26.39;75125.69;5028814;28;20545;-76
2021/06/14 08:31:08;;;;;;;13.15;3.72;;;;;;;-142.75;26.19;75180.78;5033105;28;20035;-77
2021/06/14 08:33:34;;;;;;;9.07;3.47;;;;;;;-142.75;27.93;75046.97;5033212;28;20056;-76
2021/06/14 08:35:59;;;;;;;9.52;3.58;;;;;;;-142.75;25.64;75015.50;5015350;28;20049;-77
2021/06/14 08:38:25;;;;;;;14.82;3.72;;;;;;;-142.75;27.32;75100.09;5049120;28;20025;-77
2021/06/14 08:40:51;;;;;;;11.32;3.88;;;;;;;-142.75;26.55;75003.69;5052805;28;20039;-76
2021/06/14 08:43:19;;;;;;;14.45;4.00;;;;;;;-142.75;25.79;75121.75;5035193;28;20021;-77
2021/06/14 08:45:47;;;;;;;11.02;3.75;;;;;;;-142.75;26.31;74966.31;5052626;28;20021;-76
2021/06/14 08:48:12;;;;;;;11.38;3.80;;;;;;;-142.75;26.07;74901.38;5039441;28;20052;-77
2021/06/14 08:50:38;;;;;;;7.97;4.00;;;;;;;-142.75;25.75;74850.22;5032540;28;20459;-75
2021/06/14 08:53:05;;;;;;;9.50;3.92;;;;;;;-142.75;25.75;74830.53;5032886;28;20031;-77
2021/06/14 08:55:30;;;;;;;10.35;3.85;;;;;;;-142.75;25.53;74822.66;5015593;28;20036;-75
2021/06/14 08:57:56;;;;;;;10.63;3.95;;;;;;;-142.75;24.76;74856.13;5046213;28;20482;-75
2021/06/14 09:00:24;;;;;;;9.27;3.78;;;;;;;-142.75;25.19;74763.63;5032704;28;20029;-75
2021/06/14 09:02:50;;;;;;;10.07;3.90;;;;;;;-142.75;24.92;74765.59;5034516;28;20029;-76
2021/06/14 09:05:20;;;;;;;10.20;3.97;;;;;;;-142.75;24.47;74781.34;5049189;28;20025;-76
2021/06/14 09:07:45;;;;;;;11.32;3.75;;;;;;;-142.75;25.22;74759.72;5031901;28;20025;-75
2021/06/14 09:10:29;;;;;;;12.80;4.13;;;;;;;-142.75;25.12;74720.34;5014561;28;20113;-77
2021/06/14 09:13:07;;;;;;;11.23;3.50;;;;;;;-142.75;25.10;74681.00;5013827;28;20687;-76
2021/06/14 09:15:32;;;;;;;11.30;3.72;;;;;;;-142.75;23.75;74665.25;5038865;28;20025;-76
2021/06/14 09:17:58;;;;;;;9.70;3.80;;;;;;;-142.75;25.33;74830.53;5052394;28;20033;-77
2021/06/14 09:20:25;;;;;;;9.88;3.95;;;;;;;-142.75;23.69;74858.09;5034322;28;20073;-75
2021/06/14 09:22:51;;;;;;;7.80;3.08;;;;;;;-142.75;24.29;74909.25;5052250;28;20425;-77
2021/06/14 09:25:17;;;;;;;8.50;3.67;;;;;;;-142.75;25.09;74812.81;5016724;28;20021;-75
2021/06/14 09:27:49;;;;;;;9.40;3.30;;;;;;;-142.75;25.80;74732.16;5042011;28;20081;-76
2021/06/14 09:30:24;;;;;;;6.82;3.25;;;;;;;-142.75;24.21;74692.81;5051804;28;20052;-78
2021/06/14 09:32:55;;;;;;;7.70;3.45;;;;;;;-142.75;24.14;74669.19;5034279;28;20013;-77
2021/06/14 09:35:22;;;;;;;12.50;3.58;;;;;;;-142.75;24.95;74649.53;5033946;28;20437;-76
2021/06/14 09:38:02;;;;;;;7.90;2.85;;;;;;;-142.75;23.91;74635.75;5033909;28;20483;-77
2021/06/14 09:40:35;;;;;;;10.18;3.33;;;;;;;-142.75;23.61;74610.16;5039277;28;20025;-76
2021/06/14 09:43:04;;;;;;;10.48;3.50;;;;;;;-142.75;23.01;74604.28;5032196;28;20483;-76
2021/06/14 09:45:29;;;;;;;7.88;3.50;;;;;;;-142.75;23.63;74641.66;5014065;28;20509;-77
2021/06/14 09:47:55;;;;;;;6.85;3.17;;;;;;;-142.75;23.30;74602.31;5032047;28;20021;-75
2021/06/14 09:50:31;;;;;;;12.68;3.88;;;;;;;-142.75;23.76;74600.34;5031722;28;20290;-76
2021/06/14 09:53:12;;;;;;;10.55;3.17;;;;;;;-142.75;23.33;74549.19;5032040;28;20390;-75
2021/06/14 09:55:38;;;;;;;8.60;3.58;;;;;;;-142.75;23.05;74600.34;5041994;28;20040;-78
2021/06/14 09:58:17;;;;;;;9.80;3.50;;;;;;;-142.75;23.33;74740.03;5050453;28;20024;-75
2021/06/14 10:00:57;;;;;;;8.52;3.42;;;;;;;-142.75;24.93;74930.88;5016301;28;20095;-77
2021/06/14 10:03:25;;;;;;;12.70;3.75;;;;;;;-142.75;25.01;75023.38;5023672;28;20079;-78
2021/06/14 10:05:53;;;;;;;8.43;3.55;;;;;;;-142.75;26.25;75031.25;5031539;28;20025;-77
2021/06/14 10:08:33;;;;;;;11.02;3.72;;;;;;;-142.75;26.15;74895.47;5032926;28;20029;-77
2021/06/14 10:11:04;;;;;;;8.55;3.22;;;;;;;-142.75;25.19;74736.09;5014762;28;20051;-76
2021/06/14 10:13:31;;;;;;;7.88;3.53;;;;;;;-142.75;22.32;74700.69;5041896;28;20021;-76
2021/06/14 10:16:02;;;;;;;10.65;3.35;;;;;;;-142.75;23.89;74706.59;5051204;28;20486;-76
2021/06/14 10:18:37;;;;;;;9.40;3.17;;;;;;;-142.75;24.15;74625.91;5017648;28;20395;-77
2021/06/14 10:21:04;;;;;;;6.28;2.78;;;;;;;-142.75;24.06;74549.19;5013331;28;20474;-76
2021/06/14 10:23:30;;;;;;;7.28;2.78;;;;;;;-142.75;22.54;74596.41;5028757;28;20029;-76
2021/06/14 10:25:57;;;;;;;7.97;3.08;;;;;;;-142.75;23.21;74566.88;5013587;28;20035;-76
2021/06/14 10:28:24;;;;;;;8.15;3.40;;;;;;;-142.75;23.69;74806.94;5046005;28;20029;-76
2021/06/14 10:30:51;;;;;;;9.45;3.83;;;;;;;-142.75;24.80;75043.03;5032527;28;20509;-75
2021/06/14 10:33:19;;;;;;;14.40;3.67;;;;;;;-142.75;26.80;75027.31;5039189;28;20122;-77
2021/06/14 10:35:44;;;;;;;9.93;3.20;;;;;;;-142.75;25.45;74814.78;5039398;28;20398;-76
2021/06/14 10:38:12;;;;;;;10.80;3.60;;;;;;;-142.75;25.08;74684.94;5031184;28;20021;-77
2021/06/14 10:40:38;;;;;;;9.75;3.25;;;;;;;-142.75;23.69;74610.16;5030678;28;20060;-76
2021/06/14 10:43:04;;;;;;;7.88;2.85;;;;;;;-142.75;24.23;74555.09;5013435;28;20060;-77
2021/06/14 10:45:30;;;;;;;10.43;3.28;;;;;;;-142.75;25.18;74645.59;5045398;28;20108;-75
2021/06/14 10:47:56;;;;;;;7.85;2.97;;;;;;;-142.75;24.87;74578.69;5034278;28;20036;-78
2021/06/14 10:50:25;;;;;;;7.18;2.78;;;;;;;-142.75;23.39;74566.88;5047492;28;20096;-75
2021/06/14 10:52:51;;;;;;;8.63;3.22;;;;;;;-142.75;24.46;74559.00;5033971;28;20119;-76
2021/06/14 10:55:22;;;;;;;7.78;2.58;;;;;;;-142.75;24.67;74547.22;5028808;28;20482;-76
2021/06/14 10:57:48;;;;;;;7.97;2.80;;;;;;;-142.75;23.86;74560.97;5047138;28;20028;-75
2021/06/14 11:00:19;;;;;;;7.13;2.92;;;;;;;-142.75;23.74;74596.41;5050348;28;20385;-77
2021/06/14 11:02:57;;;;;;;9.80;3.30;;;;;;;-142.75;23.92;74584.59;5014498;28;20029;-77
2021/06/14 11:05:34;;;;;;;7.80;2.97;;;;;;;-142.75;23.88;74582.63;5012944;28;20026;-75
2021/06/14 11:08:19;;;;;;;6.93;2.60;;;;;;;-142.75;22.37;74555.09;5031049;28;20116;-77
2021/06/14 11:10:57;;;;;;;5.97;2.70;;;;;;;-142.75;22.60;74586.56;5042083;28;20094;-76
2021/06/14 11:13:22;;;;;;;7.40;2.67;;;;;;;-142.75;22.27;74572.78;5044309;28;20264;-74
2021/06/14 11:15:51;;;;;;;8.10;2.85;;;;;;;-142.75;23.07;74692.81;5025140;28;20114;-77
2021/06/14 11:18:25;;;;;;;8.52;3.33;;;;;;;-142.75;22.97;74641.66;5039632;28;20513;-76
2021/06/14 11:20:53;;;;;;;4.50;2.30;;;;;;;-142.75;22.29;74586.56;5030169;28;20042;-75